Terminal Aerodrome Forecast
Issued by NWS Cleveland, OH

Home | Current Version | Previous Version | Text Only | Print | Product List | Glossary On
Versions: 1 2 3 4 5 6 7 8 9 10 11 12 13 14 15 16 17 18 19 20 21 22 23
717
FTUS41 KCLE 011740
TAFYNG
TAF
KYNG 011740Z 0118/0218 18008KT P6SM BKN025
     FM020400 18004KT 5SM -SHRA SCT008 OVC020
     FM020900 18004KT 3SM BR BKN008
     FM021400 23006KT P6SM BKN015=

USA.gov is the U.S. government's official web portal to all federal, state and local government web resources and services.